Time;durP1;ratioP1;P1;durP2;ratioP2;P2;SDS_P1;SDS_P2;PMS_P1;PMS_P2;Temp;Humidity;BMP_temperature;BMP_pressure;BME280_temperature;BME280_humidity;BME280_pressure;Samples;Min_cycle;Max_cycle;Signal;HPM_P1;HPM_P2
2022/12/01 00:01:12;;;;;;;8.85;3.28;;;;;;;8.24;100.00;102086.78;5002801;28;20057;-82
2022/12/01 00:03:39;;;;;;;7.03;2.40;;;;;;;8.43;100.00;102111.03;5004388;28;20050;-82
2022/12/01 00:06:10;;;;;;;9.75;2.47;;;;;;;8.41;100.00;102118.88;5001644;28;20385;-82
2022/12/01 00:08:37;;;;;;;8.88;2.58;;;;;;;8.56;100.00;102125.75;5000657;28;20400;-82
2022/12/01 00:11:13;;;;;;;6.15;1.90;;;;;;;8.54;100.00;102110.09;4999755;28;20381;-82
2022/12/01 00:13:40;;;;;;;8.93;2.17;;;;;;;8.60;100.00;102113.56;5011496;28;20050;-82
2022/12/01 00:16:11;;;;;;;7.85;2.22;;;;;;;8.47;100.00;102118.00;5006392;28;20046;-82
2022/12/01 00:18:38;;;;;;;9.00;3.88;;;;;;;8.47;100.00;102111.03;5003219;28;20058;-81
2022/12/01 00:21:05;;;;;;;10.70;2.83;;;;;;;8.37;100.00;102106.69;5000274;28;20057;-81
2022/12/01 00:23:32;;;;;;;8.13;2.50;;;;;;;8.26;100.00;102061.56;5001862;28;20046;-81
2022/12/01 00:26:03;;;;;;;9.38;2.60;;;;;;;8.41;100.00;102108.44;5008324;28;20487;-82
2022/12/01 00:28:30;;;;;;;10.02;2.75;;;;;;;8.40;100.00;102100.63;5003343;28;20170;-82
2022/12/01 00:30:59;;;;;;;7.65;2.50;;;;;;;8.32;100.00;102079.78;5003952;28;20054;-81
2022/12/01 00:33:26;;;;;;;10.73;3.08;;;;;;;8.39;100.00;102093.66;5000590;28;20047;-82
2022/12/01 00:36:00;;;;;;;7.57;2.40;;;;;;;8.47;100.00;102099.72;5006769;28;20456;-82
2022/12/01 00:38:27;;;;;;;7.90;2.42;;;;;;;8.59;100.00;102098.75;4997583;28;20050;-81
2022/12/01 00:40:54;;;;;;;7.50;2.35;;;;;;;8.42;100.00;102104.06;5003039;28;20467;-81
2022/12/01 00:43:21;;;;;;;9.45;2.70;;;;;;;8.22;100.00;102047.66;5000106;28;20437;-81
2022/12/01 00:45:48;;;;;;;7.80;2.35;;;;;;;8.46;100.00;102082.31;5003857;28;20104;-81
2022/12/01 00:48:14;;;;;;;10.00;3.58;;;;;;;8.36;100.00;102081.50;4998314;28;20046;-82
2022/12/01 00:50:42;;;;;;;10.05;3.08;;;;;;;8.50;100.00;102084.06;5009149;28;20396;-82
2022/12/01 00:53:09;;;;;;;12.45;3.08;;;;;;;8.55;100.00;102090.06;4995651;28;20047;-81
2022/12/01 00:55:35;;;;;;;8.10;2.83;;;;;;;8.40;100.00;102058.84;5002227;28;20456;-81
2022/12/01 00:58:03;;;;;;;10.95;3.05;;;;;;;8.37;100.00;102080.59;5000389;28;20104;-81
2022/12/01 01:00:30;;;;;;;10.65;3.00;;;;;;;8.46;100.00;102057.06;5004269;28;20104;-82
2022/12/01 01:02:56;;;;;;;8.88;3.15;;;;;;;8.60;100.00;102077.84;5001177;28;20373;-81
2022/12/01 01:05:23;;;;;;;15.35;4.32;;;;;;;8.59;100.00;102080.47;5001746;28;20061;-82
2022/12/01 01:07:50;;;;;;;7.60;3.20;;;;;;;8.50;100.00;102071.84;5001218;28;20496;-82
2022/12/01 01:10:17;;;;;;;9.82;3.55;;;;;;;8.50;100.00;102074.47;5002241;28;20057;-81
2022/12/01 01:12:44;;;;;;;11.68;3.88;;;;;;;8.30;100.00;102051.06;5002775;28;20392;-82
2022/12/01 01:15:10;;;;;;;10.50;4.03;;;;;;;8.40;100.00;102053.63;5004880;28;20050;-81
2022/12/01 01:17:37;;;;;;;12.35;4.22;;;;;;;8.43;100.00;102069.28;5001223;28;20530;-82
2022/12/01 01:20:05;;;;;;;9.50;3.67;;;;;;;8.31;100.00;102049.34;4999614;28;20105;-82
2022/12/01 01:22:33;;;;;;;12.82;4.53;;;;;;;8.48;100.00;102085.78;4994946;28;20046;-82
2022/12/01 01:25:00;;;;;;;13.15;5.55;;;;;;;8.30;100.00;102073.69;5003127;28;20073;-82
2022/12/01 01:27:27;;;;;;;10.15;5.03;;;;;;;8.48;100.00;102081.44;4999929;28;20046;-82
2022/12/01 01:29:54;;;;;;;12.55;4.00;;;;;;;8.50;100.00;102095.34;5000489;28;20123;-80
2022/12/01 01:32:21;;;;;;;10.48;4.00;;;;;;;8.47;100.00;102097.97;4997810;28;20093;-82
2022/12/01 01:34:48;;;;;;;12.70;4.72;;;;;;;8.51;100.00;102104.91;5003496;28;20058;-80
2022/12/01 01:37:14;;;;;;;14.77;4.32;;;;;;;8.41;100.00;102084.06;5002350;28;20056;-82
2022/12/01 01:39:41;;;;;;;13.40;5.20;;;;;;;8.26;100.00;102075.47;5006118;28;20546;-81
2022/12/01 01:42:12;;;;;;;11.70;3.72;;;;;;;8.38;100.00;102084.97;4999219;28;20046;-82
2022/12/01 01:44:49;;;;;;;10.07;3.65;;;;;;;8.62;100.00;102109.19;5033746;28;20054;-81
2022/12/01 01:47:24;;;;;;;11.90;3.70;;;;;;;8.44;100.00;102078.84;5007473;28;20120;-81
2022/12/01 01:49:53;;;;;;;9.45;3.65;;;;;;;8.57;100.00;102105.72;5009503;28;20124;-82
2022/12/01 01:52:22;;;;;;;9.02;3.65;;;;;;;8.49;100.00;102106.66;4998874;28;20123;-82
2022/12/01 01:55:01;;;;;;;10.45;4.57;;;;;;;8.46;100.00;102096.22;5030856;28;20054;-82
2022/12/01 02:01:18;;;;;;;11.52;4.32;;;;;;;8.42;100.00;102089.31;5006154;28;20443;-82
2022/12/01 02:03:46;;;;;;;13.98;4.28;;;;;;;8.49;100.00;102097.97;5008638;28;20042;-82
2022/12/01 02:06:15;;;;;;;9.82;3.72;;;;;;;8.37;100.00;102088.44;5000631;28;20050;-82
2022/12/01 02:08:43;;;;;;;11.80;4.13;;;;;;;8.31;100.00;102091.97;5011158;28;20050;-81
2022/12/01 02:11:26;;;;;;;10.95;4.75;;;;;;;8.35;100.00;102088.44;4976308;28;20105;-82
2022/12/01 02:14:12;;;;;;;10.60;4.10;;;;;;;8.45;100.00;102096.25;4973271;28;20452;-82
2022/12/01 02:16:53;;;;;;;10.35;3.80;;;;;;;8.38;100.00;102094.53;4973013;28;20054;-82
2022/12/01 02:19:49;;;;;;;11.27;4.20;;;;;;;8.41;100.00;102091.88;4972894;28;20209;-81
2022/12/01 02:22:28;;;;;;;12.48;4.03;;;;;;;8.41;100.00;102087.56;4971770;28;20122;-81
2022/12/01 02:24:55;;;;;;;14.50;5.43;;;;;;;8.27;100.00;102089.38;4972613;28;20119;-81
2022/12/01 02:27:33;;;;;;;11.23;4.32;;;;;;;8.21;100.00;102085.06;4963101;28;20050;-82
2022/12/01 02:30:08;;;;;;;9.55;3.92;;;;;;;7.74;100.00;102016.66;4972400;28;20090;-82
2022/12/01 02:32:46;;;;;;;15.75;4.97;;;;;;;8.20;100.00;102078.13;4972373;28;20046;-82
2022/12/01 02:35:22;;;;;;;14.30;7.43;;;;;;;8.13;100.00;102092.94;4971714;28;20047;-82
2022/12/01 02:38:09;;;;;;;12.32;4.90;;;;;;;8.16;100.00;102102.47;4972427;28;20050;-82
2022/12/01 02:40:42;;;;;;;15.30;5.57;;;;;;;8.02;100.00;102088.66;4977847;28;20047;-82
2022/12/01 02:43:52;;;;;;;20.77;8.05;;;;;;;8.15;100.00;102098.16;5000266;28;20050;-82
2022/12/01 02:46:24;;;;;;;12.18;5.18;;;;;;;8.19;100.00;102102.47;4972286;28;20042;-82
2022/12/01 02:48:53;;;;;;;12.90;5.47;;;;;;;8.09;100.00;102093.84;4996619;28;20136;-82
2022/12/01 02:51:29;;;;;;;12.98;5.65;;;;;;;7.97;100.00;102076.50;5012226;28;20062;-82
2022/12/01 02:53:59;;;;;;;15.68;4.63;;;;;;;8.05;100.00;102109.50;5012192;28;20065;-82
2022/12/01 02:56:26;;;;;;;11.60;4.47;;;;;;;8.12;100.00;102109.47;5009419;28;20444;-82
2022/12/01 02:58:52;;;;;;;13.48;4.85;;;;;;;8.01;100.00;102079.09;5013902;28;20046;-82
2022/12/01 03:01:44;;;;;;;15.13;6.05;;;;;;;7.95;100.00;102103.44;5014489;28;20377;-82
2022/12/01 03:04:48;;;;;;;14.18;5.97;;;;;;;7.65;100.00;102068.84;5013200;28;20053;-82
2022/12/01 03:07:38;;;;;;;14.18;5.32;;;;;;;7.79;100.00;102105.25;5010445;28;20092;-82
2022/12/01 03:10:26;;;;;;;18.42;6.85;;;;;;;7.79;100.00;102106.16;5015166;28;20061;-82
2022/12/01 03:13:29;;;;;;;15.60;6.70;;;;;;;7.87;100.00;102113.94;5013439;28;20041;-82
2022/12/01 03:16:29;;;;;;;12.32;5.53;;;;;;;7.89;100.00;102106.09;5009928;28;20446;-82
2022/12/01 03:19:04;;;;;;;17.73;6.68;;;;;;;7.77;100.00;102109.63;5005375;28;20148;-82
2022/12/01 03:21:40;;;;;;;18.75;6.40;;;;;;;7.80;100.00;102112.22;5010994;28;20061;-82
2022/12/01 03:24:15;;;;;;;16.33;7.25;;;;;;;7.80;100.00;102107.88;5009775;28;20050;-82
2022/12/01 03:26:47;;;;;;;18.77;7.75;;;;;;;7.79;100.00;102107.88;5018137;28;20046;-82
2022/12/01 03:29:38;;;;;;;15.98;7.35;;;;;;;7.60;100.00;102078.41;5009749;28;20057;-82
2022/12/01 03:32:14;;;;;;;16.88;7.88;;;;;;;7.88;100.00;102113.06;5012856;28;20050;-83
2022/12/01 03:35:13;;;;;;;18.33;7.57;;;;;;;7.84;100.00;102116.53;5007516;28;20054;-82
2022/12/01 03:37:44;;;;;;;14.18;6.65;;;;;;;7.92;100.00;102112.16;5011751;28;20093;-81
2022/12/01 03:40:17;;;;;;;16.23;8.20;;;;;;;7.66;100.00;102107.06;5012811;28;20052;-82
2022/12/01 03:42:50;;;;;;;16.13;8.05;;;;;;;7.62;100.00;102107.09;5013668;28;20049;-82
2022/12/01 03:45:28;;;;;;;16.80;7.65;;;;;;;7.60;100.00;102088.84;5002220;28;20100;-82
2022/12/01 03:47:55;;;;;;;18.40;7.95;;;;;;;7.47;100.00;102094.97;5005451;28;20061;-82
2022/12/01 03:50:41;;;;;;;14.40;7.45;;;;;;;7.67;100.00;102105.34;5010756;28;20049;-82
2022/12/01 03:53:21;;;;;;;15.73;7.60;;;;;;;7.76;100.00;102108.75;4991596;28;20050;-82
2022/12/01 03:55:55;;;;;;;11.32;6.07;;;;;;;7.76;100.00;102106.16;5010539;28;20049;-82
2022/12/01 03:58:33;;;;;;;17.70;8.68;;;;;;;7.73;100.00;102106.16;5009632;28;20060;-82
2022/12/01 04:01:04;;;;;;;19.38;9.27;;;;;;;7.73;100.00;102095.72;5009470;28;20104;-82
2022/12/01 04:03:32;;;;;;;17.60;8.50;;;;;;;7.66;100.00;102104.44;5011396;28;20065;-82
2022/12/01 04:05:59;;;;;;;22.25;8.80;;;;;;;7.72;100.00;102108.78;5012694;28;20050;-83
2022/12/01 04:08:26;;;;;;;16.92;9.90;;;;;;;7.77;100.00;102107.91;5010787;28;20100;-82
2022/12/01 04:10:52;;;;;;;21.33;9.85;;;;;;;7.68;100.00;102101.84;5001629;28;20049;-83
2022/12/01 04:13:22;;;;;;;21.17;9.38;;;;;;;7.75;100.00;102101.81;5011826;28;20045;-82
2022/12/01 04:15:49;;;;;;;21.55;10.50;;;;;;;7.70;100.00;102107.91;5011796;28;20522;-83
2022/12/01 04:18:17;;;;;;;18.48;8.52;;;;;;;7.69;100.00;102107.06;5011589;28;20050;-83
2022/12/01 04:20:45;;;;;;;17.25;8.13;;;;;;;7.84;100.00;102116.53;4998797;28;20393;-82
2022/12/01 04:25:59;;;;;;;24.42;11.32;;;;;;;7.69;100.00;102086.19;5011264;28;20054;-83
2022/12/01 04:28:26;;;;;;;17.05;8.43;;;;;;;7.78;100.00;102107.00;5011347;28;20125;-83
2022/12/01 04:30:53;;;;;;;29.02;11.50;;;;;;;7.65;100.00;102104.44;5011479;28;20100;-82
2022/12/01 04:33:20;;;;;;;28.08;12.63;;;;;;;7.58;100.00;102107.09;5009163;28;20385;-82
2022/12/01 04:35:58;;;;;;;22.40;11.82;;;;;;;7.68;100.00;102101.84;5011359;28;20519;-82
2022/12/01 04:38:25;;;;;;;17.40;8.85;;;;;;;7.95;100.00;102096.53;5010982;28;20493;-82
2022/12/01 04:40:56;;;;;;;19.27;8.35;;;;;;;7.95;100.00;102090.41;5010928;28;20050;-82
2022/12/01 04:43:23;;;;;;;19.67;8.98;;;;;;;7.95;100.00;102083.47;5011155;28;20472;-82
2022/12/01 04:45:50;;;;;;;23.27;10.02;;;;;;;7.82;100.00;102084.41;5010155;28;20061;-82
2022/12/01 04:48:16;;;;;;;22.25;8.65;;;;;;;7.78;100.00;102074.88;5010604;28;20061;-82
2022/12/01 04:50:43;;;;;;;18.77;8.38;;;;;;;7.73;100.00;102061.84;5010176;28;20054;-82
2022/12/01 04:53:10;;;;;;;23.30;11.43;;;;;;;7.64;100.00;102071.44;5000268;28;20100;-82
2022/12/01 04:59:25;;;;;;;14.80;6.90;;;;;;;7.84;100.00;102067.00;5018247;28;20052;-82
2022/12/01 05:02:16;;;;;;;22.00;9.40;;;;;;;8.04;100.00;102098.22;4997878;28;20074;-82
2022/12/01 05:04:46;;;;;;;17.15;8.55;;;;;;;7.94;100.00;102088.69;4999158;28;20399;-82
2022/12/01 05:07:14;;;;;;;19.95;10.18;;;;;;;7.95;100.00;102082.59;5009051;28;20054;-82
2022/12/01 05:09:40;;;;;;;19.75;9.45;;;;;;;7.99;100.00;102108.66;5004813;28;20058;-82
2022/12/01 05:12:07;;;;;;;16.05;7.78;;;;;;;8.07;100.00;102095.56;5001799;28;20057;-82
2022/12/01 05:14:34;;;;;;;20.48;9.27;;;;;;;7.96;100.00;102092.16;5007693;28;20049;-82
2022/12/01 05:17:01;;;;;;;19.52;9.70;;;;;;;7.86;100.00;102077.44;4999799;28;20049;-82
2022/12/01 05:22:13;;;;;;;18.27;9.50;;;;;;;8.07;100.00;102092.97;5011584;28;20472;-82
2022/12/01 05:24:40;;;;;;;19.45;9.27;;;;;;;8.10;100.00;102097.31;5010269;28;20100;-82
2022/12/01 05:27:07;;;;;;;19.42;10.63;;;;;;;7.86;100.00;102093.97;5005015;28;20050;-82
2022/12/01 05:29:34;;;;;;;19.02;9.02;;;;;;;8.08;100.00;102097.31;5010242;28;20050;-82
2022/12/01 05:32:01;;;;;;;17.23;7.55;;;;;;;8.09;100.00;102095.56;5005073;28;20053;-82
2022/12/01 05:34:29;;;;;;;16.23;7.85;;;;;;;8.03;100.00;102080.81;5010471;28;20133;-82
2022/12/01 05:36:55;;;;;;;18.38;9.85;;;;;;;7.95;100.00;102079.97;5010560;28;20112;-82
2022/12/01 05:39:22;;;;;;;16.60;7.43;;;;;;;8.04;100.00;102089.50;5010266;28;20550;-81
2022/12/01 05:41:48;;;;;;;17.42;8.93;;;;;;;7.87;100.00;102050.50;5010039;28;20042;-82
2022/12/01 05:44:15;;;;;;;19.10;9.20;;;;;;;7.81;100.00;102064.44;5011677;28;20050;-82
2022/12/01 05:46:42;;;;;;;18.05;8.93;;;;;;;7.98;100.00;102090.41;5014760;28;20057;-82
2022/12/01 05:49:09;;;;;;;18.63;9.18;;;;;;;8.16;100.00;102099.88;5014604;28;20108;-82
2022/12/01 05:51:35;;;;;;;15.05;7.43;;;;;;;7.87;100.00;102087.00;5014723;28;20487;-82
2022/12/01 05:54:02;;;;;;;17.40;8.48;;;;;;;7.97;100.00;102075.66;5013743;28;20054;-82
2022/12/01 05:56:29;;;;;;;16.55;8.07;;;;;;;7.84;100.00;102103.50;5013144;28;20107;-82
2022/12/01 05:58:56;;;;;;;20.92;8.32;;;;;;;8.04;100.00;102093.00;5014717;28;20427;-82
2022/12/01 06:01:22;;;;;;;14.93;7.18;;;;;;;8.03;100.00;102088.66;5012482;28;20050;-82
2022/12/01 06:03:49;;;;;;;14.05;6.60;;;;;;;8.07;100.00;102102.53;5014115;28;20046;-81
2022/12/01 06:06:16;;;;;;;12.98;6.28;;;;;;;7.93;100.00;102108.72;5001605;28;20404;-82
2022/12/01 06:08:43;;;;;;;18.40;9.80;;;;;;;7.92;100.00;102103.50;5006247;28;20407;-81
2022/12/01 06:11:09;;;;;;;11.55;5.90;;;;;;;7.87;100.00;102081.78;5010330;28;20104;-81
2022/12/01 06:13:36;;;;;;;13.55;6.53;;;;;;;7.82;100.00;102067.91;5013844;28;20437;-81
2022/12/01 06:16:05;;;;;;;13.68;6.45;;;;;;;8.01;100.00;102094.75;5015236;28;20455;-82
2022/12/01 06:18:37;;;;;;;16.83;8.43;;;;;;;8.07;100.00;102089.50;5014185;28;20536;-81
2022/12/01 06:21:05;;;;;;;17.52;7.97;;;;;;;8.12;100.00;102095.56;5010631;28;20112;-81
2022/12/01 06:23:32;;;;;;;18.20;7.57;;;;;;;8.24;100.00;102103.31;5008838;28;20483;-81
2022/12/01 06:25:59;;;;;;;15.23;7.30;;;;;;;8.28;100.00;102093.72;5008851;28;20108;-81
2022/12/01 06:28:29;;;;;;;13.43;6.10;;;;;;;8.23;100.00;102082.44;5032812;28;20050;-81
2022/12/01 06:30:56;;;;;;;17.60;7.75;;;;;;;8.25;100.00;102096.34;5011853;28;20050;-81
2022/12/01 06:33:30;;;;;;;13.55;6.20;;;;;;;8.07;100.00;102090.34;5005337;28;20056;-80
2022/12/01 06:36:03;;;;;;;18.08;7.70;;;;;;;8.23;100.00;102093.75;5003264;28;20752;-81
2022/12/01 06:38:34;;;;;;;15.02;7.75;;;;;;;8.08;100.00;102096.47;5007986;28;20052;-82
2022/12/01 06:41:02;;;;;;;13.73;6.13;;;;;;;8.11;100.00;102089.47;5011972;28;20468;-80
2022/12/01 06:43:29;;;;;;;22.48;8.90;;;;;;;7.92;100.00;102086.09;5002003;28;20046;-82
2022/12/01 06:45:56;;;;;;;15.50;7.55;;;;;;;7.93;100.00;102061.75;5006482;28;20054;-82
2022/12/01 06:48:27;;;;;;;23.55;7.07;;;;;;;7.93;100.00;102093.06;5009619;28;20069;-81
2022/12/01 06:50:59;;;;;;;14.70;5.70;;;;;;;7.95;100.00;102106.06;5005781;28;20452;-83
2022/12/01 06:53:27;;;;;;;12.85;5.65;;;;;;;7.84;100.00;102084.41;5004736;28;20050;-81
2022/12/01 06:56:01;;;;;;;13.35;6.43;;;;;;;7.90;100.00;102108.72;5025079;28;20468;-82
2022/12/01 06:58:29;;;;;;;15.18;5.70;;;;;;;7.82;100.00;102091.38;5005411;28;20077;-82
2022/12/01 07:00:57;;;;;;;13.07;5.28;;;;;;;7.92;100.00;102106.97;5014302;28;20054;-80
2022/12/01 07:03:24;;;;;;;13.20;5.05;;;;;;;7.81;100.00;102082.69;5009310;28;20486;-82
2022/12/01 07:05:59;;;;;;;17.17;6.07;;;;;;;7.81;100.00;102111.38;5010811;28;20053;-82
2022/12/01 07:08:27;;;;;;;10.15;4.43;;;;;;;7.94;100.00;102120.84;5018000;28;20046;-81
2022/12/01 07:11:02;;;;;;;13.48;5.00;;;;;;;7.79;100.00;102082.69;5008399;28;20388;-81
2022/12/01 07:13:30;;;;;;;11.80;4.60;;;;;;;7.87;100.00;102081.78;5007974;28;20050;-81
2022/12/01 07:16:01;;;;;;;12.55;4.72;;;;;;;8.06;100.00;102119.09;5012964;28;20042;-81
2022/12/01 07:18:28;;;;;;;14.07;6.25;;;;;;;7.62;100.00;102063.63;5007098;28;20054;-81
2022/12/01 07:21:04;;;;;;;16.30;6.75;;;;;;;7.89;100.00;102098.28;5007909;28;20080;-82
2022/12/01 07:23:30;;;;;;;11.95;5.72;;;;;;;7.96;100.00;102089.56;5014039;28;20502;-82
2022/12/01 07:26:02;;;;;;;14.35;6.32;;;;;;;7.97;100.00;102120.84;5006060;28;20116;-83
2022/12/01 07:28:29;;;;;;;13.30;6.47;;;;;;;7.42;100.00;102048.09;5018968;28;20057;-82
2022/12/01 07:31:13;;;;;;;12.60;5.22;;;;;;;7.62;100.00;102079.28;5006912;28;20045;-81
2022/12/01 07:33:40;;;;;;;13.93;5.75;;;;;;;7.93;100.00;102111.31;5004965;28;20491;-82
2022/12/01 07:36:09;;;;;;;12.73;6.38;;;;;;;8.10;100.00;102139.06;5003543;28;20042;-81
2022/12/01 07:38:37;;;;;;;13.90;6.97;;;;;;;7.94;100.00;102099.13;5003157;28;20053;-82
2022/12/01 07:41:10;;;;;;;10.88;5.53;;;;;;;8.15;100.00;102132.94;5013045;28;20049;-82
2022/12/01 07:43:38;;;;;;;15.05;6.15;;;;;;;7.75;100.00;102103.56;5009136;28;20550;-81
2022/12/01 07:46:09;;;;;;;10.82;4.97;;;;;;;8.16;100.00;102136.41;5007144;28;20100;-82
2022/12/01 07:48:37;;;;;;;14.75;7.03;;;;;;;8.06;100.00;102135.59;5009556;28;20495;-82
2022/12/01 07:51:09;;;;;;;12.98;6.32;;;;;;;7.80;100.00;102091.38;5024570;28;20096;-81
2022/12/01 07:53:36;;;;;;;12.57;5.82;;;;;;;7.77;100.00;102087.03;5011235;28;20084;-82
2022/12/01 07:56:04;;;;;;;12.85;5.97;;;;;;;7.98;100.00;102122.59;5013578;28;20404;-82
2022/12/01 07:58:34;;;;;;;12.38;5.47;;;;;;;7.94;100.00;102113.03;5001559;28;20057;-80
2022/12/01 08:01:09;;;;;;;18.13;6.82;;;;;;;8.13;100.00;102111.22;5014620;28;20054;-82
2022/12/01 08:03:37;;;;;;;14.65;6.68;;;;;;;8.25;100.00;102114.59;5012663;28;20455;-82
2022/12/01 08:06:04;;;;;;;12.85;5.35;;;;;;;8.44;100.00;102136.28;5011388;28;20058;-82
2022/12/01 08:08:33;;;;;;;15.15;5.88;;;;;;;8.11;100.00;102107.75;5012162;28;20064;-80
2022/12/01 08:11:02;;;;;;;15.25;4.95;;;;;;;7.77;100.00;102097.47;5017014;28;20057;-82
2022/12/01 08:13:29;;;;;;;14.43;4.88;;;;;;;8.02;100.00;102133.88;5010841;28;20690;-80
2022/12/01 08:15:56;;;;;;;11.77;5.55;;;;;;;8.00;100.00;102119.94;5013370;28;20042;-82
2022/12/01 08:18:23;;;;;;;11.85;5.03;;;;;;;7.86;100.00;102080.94;5010302;28;20431;-81
2022/12/01 08:20:50;;;;;;;15.65;7.03;;;;;;;7.86;100.00;102108.72;5010998;28;20049;-81
2022/12/01 08:23:17;;;;;;;10.35;4.68;;;;;;;7.99;100.00;102116.50;4999876;28;20488;-82
2022/12/01 08:25:44;;;;;;;13.70;5.97;;;;;;;8.05;100.00;102112.97;5040154;28;20476;-81
2022/12/01 08:28:10;;;;;;;12.25;5.30;;;;;;;7.82;100.00;102084.41;5005577;28;20100;-80
2022/12/01 08:30:37;;;;;;;11.10;5.15;;;;;;;8.22;100.00;102152.03;5010643;28;20049;-82
2022/12/01 08:33:04;;;;;;;12.05;4.43;;;;;;;8.03;100.00;102116.47;5011518;28;20427;-81
2022/12/01 08:35:34;;;;;;;12.73;4.47;;;;;;;8.16;100.00;102136.41;5011722;28;20376;-81
2022/12/01 08:38:01;;;;;;;16.23;5.22;;;;;;;8.17;100.00;102154.66;5011910;28;20084;-82
2022/12/01 08:40:27;;;;;;;13.40;6.15;;;;;;;8.05;100.00;102146.88;5011247;28;20053;-81
2022/12/01 08:42:54;;;;;;;12.00;4.68;;;;;;;7.95;100.00;102134.75;5011871;28;20377;-82
2022/12/01 08:45:22;;;;;;;14.20;6.75;;;;;;;7.82;100.00;102123.50;5011888;28;20049;-81
2022/12/01 08:47:49;;;;;;;16.00;7.68;;;;;;;8.02;100.00;102154.75;5006602;28;20127;-80
2022/12/01 08:50:16;;;;;;;14.40;5.53;;;;;;;8.17;100.00;102169.44;5013005;28;20056;-82
2022/12/01 08:52:42;;;;;;;11.90;5.70;;;;;;;7.90;100.00;102118.28;5010919;28;20062;-81
2022/12/01 08:55:09;;;;;;;13.15;5.90;;;;;;;7.91;100.00;102141.72;5010818;28;20506;-81
2022/12/01 08:57:36;;;;;;;16.65;5.55;;;;;;;7.87;100.00;102152.19;5011743;28;20053;-81
2022/12/01 09:00:03;;;;;;;12.55;5.38;;;;;;;8.00;100.00;102148.63;5008784;28;20650;-81
2022/12/01 09:02:30;;;;;;;15.60;5.30;;;;;;;8.01;100.00;102146.94;5011346;28;20054;-81
2022/12/01 09:04:57;;;;;;;12.65;4.97;;;;;;;7.99;100.00;102132.13;5012188;28;20050;-82
2022/12/01 09:07:23;;;;;;;11.70;5.53;;;;;;;7.88;100.00;102128.72;5011048;28;20092;-81
2022/12/01 09:09:52;;;;;;;12.38;4.93;;;;;;;8.01;100.00;102153.00;5011706;28;20054;-82
2022/12/01 09:12:19;;;;;;;12.45;6.18;;;;;;;7.95;100.00;102126.94;5011155;28;20499;-82
2022/12/01 09:14:48;;;;;;;10.32;4.32;;;;;;;7.95;100.00;102093.03;5014087;28;20755;-81
2022/12/01 09:17:16;;;;;;;11.38;4.97;;;;;;;8.30;100.00;102134.56;5015763;28;20046;-81
2022/12/01 09:19:43;;;;;;;12.90;5.55;;;;;;;7.97;100.00;102099.97;5005703;28;20062;-82
2022/12/01 09:22:10;;;;;;;14.48;5.97;;;;;;;8.05;100.00;102140.81;5011001;28;20392;-81
2022/12/01 09:24:37;;;;;;;10.93;4.43;;;;;;;8.33;100.00;102162.41;5011612;28;20050;-82
2022/12/01 09:27:04;;;;;;;11.65;5.35;;;;;;;8.24;100.00;102120.72;5011093;28;20111;-82
2022/12/01 09:29:31;;;;;;;12.10;5.50;;;;;;;8.10;100.00;102092.09;5023599;28;20093;-82
2022/12/01 09:31:59;;;;;;;10.68;4.47;;;;;;;8.38;100.00;102157.19;5004120;28;20081;-82
2022/12/01 09:34:27;;;;;;;13.82;5.20;;;;;;;8.06;100.00;102099.06;5008619;28;20038;-81
2022/12/01 09:36:56;;;;;;;11.90;5.63;;;;;;;8.58;100.00;102168.38;5010800;28;20057;-82
2022/12/01 09:39:23;;;;;;;12.63;5.47;;;;;;;8.45;100.00;102140.63;5000316;28;20059;-82
2022/12/01 09:41:50;;;;;;;12.63;6.68;;;;;;;8.59;100.00;102154.47;5010649;28;20051;-82
2022/12/01 09:44:43;;;;;;;13.95;6.10;;;;;;;8.48;100.00;102164.09;4992207;28;20059;-82
2022/12/01 09:47:22;;;;;;;14.60;6.22;;;;;;;8.63;100.00;102155.31;4989819;28;20054;-82
2022/12/01 09:49:54;;;;;;;14.07;5.85;;;;;;;8.58;100.00;102164.91;5041967;28;20100;-81
2022/12/01 09:52:24;;;;;;;16.08;7.60;;;;;;;8.49;100.00;102137.13;5012623;28;20058;-82
2022/12/01 09:54:54;;;;;;;13.77;7.03;;;;;;;8.48;100.00;102141.47;5011032;28;20049;-81
2022/12/01 09:57:35;;;;;;;14.38;6.50;;;;;;;8.63;100.00;102163.16;5011559;28;20054;-82
2022/12/01 10:00:15;;;;;;;15.07;6.10;;;;;;;8.73;100.00;102162.22;5009228;28;20057;-82
2022/12/01 10:02:48;;;;;;;12.15;6.00;;;;;;;8.79;100.00;102164.75;4998287;28;20057;-81
2022/12/01 10:05:18;;;;;;;14.23;6.10;;;;;;;8.41;100.00;102112.78;5011184;28;20427;-83
2022/12/01 10:07:55;;;;;;;12.75;6.20;;;;;;;8.73;100.00;102165.69;5005455;28;20054;-82
2022/12/01 10:10:30;;;;;;;17.20;8.52;;;;;;;8.63;100.00;102173.59;5016953;28;20104;-80
2022/12/01 10:12:57;;;;;;;13.90;6.10;;;;;;;8.69;100.00;102169.19;4998433;28;20050;-82
2022/12/01 10:15:28;;;;;;;13.88;5.93;;;;;;;8.58;100.00;102123.16;5012074;28;20050;-82
2022/12/01 10:18:04;;;;;;;13.05;5.65;;;;;;;8.94;100.00;102169.00;5008183;28;20050;-82
2022/12/01 10:20:40;;;;;;;12.57;5.18;;;;;;;8.52;100.00;102142.34;5010948;28;20049;-81
2022/12/01 10:23:25;;;;;;;13.60;5.78;;;;;;;8.54;100.00;102171.91;5010135;28;21220;-82
2022/12/01 10:25:58;;;;;;;11.25;5.50;;;;;;;8.67;100.00;102170.06;5011896;28;20046;-82
2022/12/01 10:28:37;;;;;;;14.38;5.10;;;;;;;8.44;100.00;102137.13;5015185;28;20048;-82
2022/12/01 10:31:18;;;;;;;15.95;6.47;;;;;;;8.74;100.00;102162.16;5010154;28;20046;-83
2022/12/01 10:34:01;;;;;;;13.52;6.25;;;;;;;8.61;100.00;102167.50;5008733;28;20049;-82
2022/12/01 10:36:30;;;;;;;15.25;7.72;;;;;;;8.59;100.00;102159.69;5013318;28;20046;-82
2022/12/01 10:38:56;;;;;;;12.45;6.15;;;;;;;8.33;100.00;102121.50;4999045;28;20050;-82
2022/12/01 10:41:26;;;;;;;13.68;6.60;;;;;;;8.46;100.00;102126.69;5011382;28;20081;-82
2022/12/01 10:43:59;;;;;;;11.75;5.72;;;;;;;8.57;100.00;102160.56;5004066;28;20049;-82
2022/12/01 10:46:52;;;;;;;15.45;6.57;;;;;;;8.70;100.00;102168.31;5013824;28;20046;-82
2022/12/01 10:49:19;;;;;;;16.80;7.13;;;;;;;8.42;100.00;102118.00;5008468;28;20446;-82
2022/12/01 10:51:54;;;;;;;14.30;7.35;;;;;;;8.64;100.00;102154.41;5014275;28;20050;-82
2022/12/01 10:54:24;;;;;;;15.68;5.75;;;;;;;8.42;100.00;102127.56;5014236;28;20597;-82
2022/12/01 10:56:55;;;;;;;14.10;5.85;;;;;;;8.44;100.00;102120.63;5012602;28;20112;-82
2022/12/01 10:59:44;;;;;;;12.77;5.40;;;;;;;8.68;100.00;102159.63;5015488;28;20451;-82
2022/12/01 11:02:18;;;;;;;10.98;5.30;;;;;;;8.78;100.00;102156.94;5014735;28;20088;-82
2022/12/01 11:04:53;;;;;;;13.75;5.75;;;;;;;8.85;100.00;102161.22;5010241;28;20042;-82
2022/12/01 11:07:30;;;;;;;12.27;5.43;;;;;;;8.85;100.00;102154.28;5013403;28;20050;-82
2022/12/01 11:10:20;;;;;;;10.95;5.10;;;;;;;8.71;100.00;102124.75;5020785;28;20045;-82
2022/12/01 11:13:15;;;;;;;10.65;5.00;;;;;;;8.93;100.00;102143.75;4994957;28;20472;-82
2022/12/01 11:15:59;;;;;;;12.07;4.80;;;;;;;8.76;100.00;102127.34;5010340;28;20107;-81
2022/12/01 11:18:26;;;;;;;9.32;3.95;;;;;;;8.98;100.00;102156.78;5017627;28;20045;-81
2022/12/01 11:21:13;;;;;;;10.95;3.60;;;;;;;9.03;100.00;102162.81;5010939;28;20451;-81
2022/12/01 11:23:51;;;;;;;8.45;3.35;;;;;;;8.70;100.00;102131.75;5008755;28;20470;-82
2022/12/01 11:26:31;;;;;;;9.10;3.67;;;;;;;8.82;100.00;102132.50;5013917;28;20455;-83
2022/12/01 11:29:05;;;;;;;8.40;3.40;;;;;;;9.10;100.00;102164.50;5023537;28;20100;-83
2022/12/01 11:31:40;;;;;;;8.52;3.35;;;;;;;9.11;100.00;102158.41;5043598;28;20484;-83
2022/12/01 11:34:27;;;;;;;7.65;3.25;;;;;;;9.04;100.00;102160.19;5013450;28;20046;-83
2022/12/01 11:36:58;;;;;;;7.35;2.60;;;;;;;8.95;100.00;102136.78;5006425;28;20041;-82
2022/12/01 11:39:26;;;;;;;7.47;2.97;;;;;;;8.99;100.00;102148.91;5008876;28;20058;-83
2022/12/01 11:41:59;;;;;;;6.90;2.72;;;;;;;8.87;100.00;102115.06;5012954;28;20046;-82
2022/12/01 11:44:28;;;;;;;9.40;3.47;;;;;;;8.87;100.00;102122.91;4998452;28;20477;-81
2022/12/01 11:47:18;;;;;;;6.13;2.30;;;;;;;9.14;100.00;102134.88;5008079;28;20408;-81
2022/12/01 11:49:57;;;;;;;7.55;2.88;;;;;;;9.17;100.00;102140.09;5009961;28;20046;-82